sensor_id;sensor_type;location;lat;lon;timestamp;P1;durP1;ratioP1;P2;durP2;ratioP2
64018;SDS011;66942;52.138;5.216;2023-02-11T00:00:14;24.0;;;7.7;;
64018;SDS011;66942;52.138;5.216;2023-02-11T00:01:52;27.8;;;7.7;;
64018;SDS011;66942;52.138;5.216;2023-02-11T00:03:27;25.2;;;8.0;;
64018;SDS011;66942;52.138;5.216;2023-02-11T00:06:41;23.6;;;8.0;;
64018;SDS011;66942;52.138;5.216;2023-02-11T00:08:17;23.7;;;8.4;;
64018;SDS011;66942;52.138;5.216;2023-02-11T00:09:53;28.3;;;8.31;;
64018;SDS011;66942;52.138;5.216;2023-02-11T00:13:05;24.5;;;7.9;;
64018;SDS011;66942;52.138;5.216;2023-02-11T00:14:42;25.9;;;8.71;;
64018;SDS011;66942;52.138;5.216;2023-02-11T00:16:19;21.9;;;7.8;;
64018;SDS011;66942;52.138;5.216;2023-02-11T00:19:32;27.9;;;8.31;;
64018;SDS011;66942;52.138;5.216;2023-02-11T00:21:09;24.1;;;7.7;;
64018;SDS011;66942;52.138;5.216;2023-02-11T00:22:48;26.1;;;8.6;;
64018;SDS011;66942;52.138;5.216;2023-02-11T00:24:23;24.4;;;8.1;;
64018;SDS011;66942;52.138;5.216;2023-02-11T00:27:37;31.2;;;8.71;;
64018;SDS011;66942;52.138;5.216;2023-02-11T00:29:13;26.5;;;8.2;;
64018;SDS011;66942;52.138;5.216;2023-02-11T00:30:53;28.7;;;8.31;;
64018;SDS011;66942;52.138;5.216;2023-02-11T00:34:06;23.5;;;8.2;;
64018;SDS011;66942;52.138;5.216;2023-02-11T00:35:42;27.2;;;8.5;;
64018;SDS011;66942;52.138;5.216;2023-02-11T00:37:18;27.0;;;8.81;;
64018;SDS011;66942;52.138;5.216;2023-02-11T00:38:55;26.1;;;9.1;;
64018;SDS011;66942;52.138;5.216;2023-02-11T00:42:09;27.9;;;9.1;;
64018;SDS011;66942;52.138;5.216;2023-02-11T00:43:49;26.3;;;8.71;;
64018;SDS011;66942;52.138;5.216;2023-02-11T00:45:27;27.9;;;9.21;;
64018;SDS011;66942;52.138;5.216;2023-02-11T00:48:40;27.4;;;8.31;;
64018;SDS011;66942;52.138;5.216;2023-02-11T00:50:17;24.9;;;8.6;;
64018;SDS011;66942;52.138;5.216;2023-02-11T00:51:54;26.8;;;8.81;;
64018;SDS011;66942;52.138;5.216;2023-02-11T00:53:30;27.2;;;8.6;;
64018;SDS011;66942;52.138;5.216;2023-02-11T00:56:44;27.5;;;8.1;;
64018;SDS011;66942;52.138;5.216;2023-02-11T00:58:21;26.0;;;8.1;;
64018;SDS011;66942;52.138;5.216;2023-02-11T00:59:57;28.1;;;8.81;;
64018;SDS011;66942;52.138;5.216;2023-02-11T01:03:10;27.1;;;8.71;;
64018;SDS011;66942;52.138;5.216;2023-02-11T01:04:47;23.1;;;8.0;;
64018;SDS011;66942;52.138;5.216;2023-02-11T01:06:23;27.0;;;8.6;;
64018;SDS011;66942;52.138;5.216;2023-02-11T01:09:36;26.5;;;7.7;;
64018;SDS011;66942;52.138;5.216;2023-02-11T01:11:14;24.6;;;9.0;;
64018;SDS011;66942;52.138;5.216;2023-02-11T01:12:53;24.2;;;8.0;;
64018;SDS011;66942;52.138;5.216;2023-02-11T01:14:29;25.3;;;8.1;;
64018;SDS011;66942;52.138;5.216;2023-02-11T01:17:45;30.5;;;8.71;;
64018;SDS011;66942;52.138;5.216;2023-02-11T01:19:21;24.3;;;8.2;;
64018;SDS011;66942;52.138;5.216;2023-02-11T01:20:57;24.8;;;8.5;;
64018;SDS011;66942;52.138;5.216;2023-02-11T01:24:12;31.2;;;8.71;;
64018;SDS011;66942;52.138;5.216;2023-02-11T01:25:49;26.7;;;8.9;;
64018;SDS011;66942;52.138;5.216;2023-02-11T01:27:26;25.5;;;8.5;;
64018;SDS011;66942;52.138;5.216;2023-02-11T01:30:38;24.1;;;8.5;;
64018;SDS011;66942;52.138;5.216;2023-02-11T01:32:14;25.2;;;8.81;;
64018;SDS011;66942;52.138;5.216;2023-02-11T01:33:50;29.1;;;9.0;;
64018;SDS011;66942;52.138;5.216;2023-02-11T01:35:26;24.9;;;8.31;;
64018;SDS011;66942;52.138;5.216;2023-02-11T01:38:39;26.2;;;8.5;;
64018;SDS011;66942;52.138;5.216;2023-02-11T01:40:16;26.9;;;8.6;;
64018;SDS011;66942;52.138;5.216;2023-02-11T01:41:53;24.7;;;9.0;;
64018;SDS011;66942;52.138;5.216;2023-02-11T01:45:41;28.1;;;9.0;;
64018;SDS011;66942;52.138;5.216;2023-02-11T01:48:44;29.3;;;8.4;;
64018;SDS011;66942;52.138;5.216;2023-02-11T01:50:25;25.3;;;8.81;;
64018;SDS011;66942;52.138;5.216;2023-02-11T01:57:58;26.1;;;9.0;;
64018;SDS011;66942;52.138;5.216;2023-02-11T01:59:40;29.3;;;8.71;;
64018;SDS011;66942;52.138;5.216;2023-02-11T02:01:26;24.8;;;9.0;;
64018;SDS011;66942;52.138;5.216;2023-02-11T02:03:08;26.5;;;9.81;;
64018;SDS011;66942;52.138;5.216;2023-02-11T02:04:51;26.2;;;9.21;;
64018;SDS011;66942;52.138;5.216;2023-02-11T02:08:24;31.1;;;9.6;;
64018;SDS011;66942;52.138;5.216;2023-02-11T02:10:13;27.5;;;9.1;;
64018;SDS011;66942;52.138;5.216;2023-02-11T02:12:02;27.5;;;9.1;;
64018;SDS011;66942;52.138;5.216;2023-02-11T02:13:39;16.61;;;6.0;;
64018;SDS011;66942;52.138;5.216;2023-02-11T02:15:19;25.0;;;7.7;;
64018;SDS011;66942;52.138;5.216;2023-02-11T02:18:38;21.3;;;7.6;;
64018;SDS011;66942;52.138;5.216;2023-02-11T02:20:36;24.5;;;8.0;;
64018;SDS011;66942;52.138;5.216;2023-02-11T02:23:19;22.9;;;7.6;;
64018;SDS011;66942;52.138;5.216;2023-02-11T02:25:17;24.0;;;7.7;;
64018;SDS011;66942;52.138;5.216;2023-02-11T02:27:16;24.4;;;8.31;;
64018;SDS011;66942;52.138;5.216;2023-02-11T02:29:28;27.0;;;8.1;;
64018;SDS011;66942;52.138;5.216;2023-02-11T02:33:02;27.6;;;9.1;;
64018;SDS011;66942;52.138;5.216;2023-02-11T02:35:01;25.6;;;8.1;;
64018;SDS011;66942;52.138;5.216;2023-02-11T02:36:48;26.9;;;8.31;;
64018;SDS011;66942;52.138;5.216;2023-02-11T02:38:35;22.3;;;7.6;;
64018;SDS011;66942;52.138;5.216;2023-02-11T02:40:19;23.1;;;7.8;;
64018;SDS011;66942;52.138;5.216;2023-02-11T02:43:35;25.2;;;8.0;;
64018;SDS011;66942;52.138;5.216;2023-02-11T02:45:16;23.4;;;7.8;;
64018;SDS011;66942;52.138;5.216;2023-02-11T02:46:53;26.8;;;8.81;;
64018;SDS011;66942;52.138;5.216;2023-02-11T02:50:09;21.6;;;7.7;;
64018;SDS011;66942;52.138;5.216;2023-02-11T02:51:57;22.9;;;7.7;;
64018;SDS011;66942;52.138;5.216;2023-02-11T02:54:01;22.1;;;7.2;;
64018;SDS011;66942;52.138;5.216;2023-02-11T02:56:02;23.2;;;7.4;;
64018;SDS011;66942;52.138;5.216;2023-02-11T02:57:52;20.2;;;7.6;;
64018;SDS011;66942;52.138;5.216;2023-02-11T02:59:45;21.1;;;7.8;;
64018;SDS011;66942;52.138;5.216;2023-02-11T03:01:41;21.1;;;7.8;;
64018;SDS011;66942;52.138;5.216;2023-02-11T03:03:27;21.2;;;7.7;;
64018;SDS011;66942;52.138;5.216;2023-02-11T03:06:57;24.3;;;8.31;;
64018;SDS011;66942;52.138;5.216;2023-02-11T03:08:42;25.9;;;8.71;;
64018;SDS011;66942;52.138;5.216;2023-02-11T03:10:24;24.8;;;8.5;;
64018;SDS011;66942;52.138;5.216;2023-02-11T03:12:04;21.3;;;7.6;;
64018;SDS011;66942;52.138;5.216;2023-02-11T03:13:43;23.1;;;8.1;;
64018;SDS011;66942;52.138;5.216;2023-02-11T03:17:03;20.41;;;7.5;;
64018;SDS011;66942;52.138;5.216;2023-02-11T03:18:43;22.7;;;7.8;;
64018;SDS011;66942;52.138;5.216;2023-02-11T03:20:27;22.9;;;7.9;;
64018;SDS011;66942;52.138;5.216;2023-02-11T03:22:10;23.8;;;7.5;;
64018;SDS011;66942;52.138;5.216;2023-02-11T03:25:33;23.8;;;7.5;;
64018;SDS011;66942;52.138;5.216;2023-02-11T03:27:17;23.5;;;8.9;;
64018;SDS011;66942;52.138;5.216;2023-02-11T03:28:59;22.7;;;7.7;;
64018;SDS011;66942;52.138;5.216;2023-02-11T03:30:44;19.41;;;8.2;;
64018;SDS011;66942;52.138;5.216;2023-02-11T03:34:12;24.4;;;8.31;;
64018;SDS011;66942;52.138;5.216;2023-02-11T03:35:54;25.4;;;8.9;;
64018;SDS011;66942;52.138;5.216;2023-02-11T03:37:36;25.0;;;9.0;;
64018;SDS011;66942;52.138;5.216;2023-02-11T03:39:18;24.6;;;9.0;;
64018;SDS011;66942;52.138;5.216;2023-02-11T03:41:00;24.0;;;9.4;;
64018;SDS011;66942;52.138;5.216;2023-02-11T03:44:20;26.3;;;10.1;;
64018;SDS011;66942;52.138;5.216;2023-02-11T03:46:01;23.1;;;9.6;;
64018;SDS011;66942;52.138;5.216;2023-02-11T03:47:41;25.2;;;9.71;;
64018;SDS011;66942;52.138;5.216;2023-02-11T03:49:22;26.2;;;9.81;;
64018;SDS011;66942;52.138;5.216;2023-02-11T03:52:43;26.3;;;10.5;;
64018;SDS011;66942;52.138;5.216;2023-02-11T03:54:23;26.2;;;10.21;;
64018;SDS011;66942;52.138;5.216;2023-02-11T03:56:05;26.5;;;10.6;;
64018;SDS011;66942;52.138;5.216;2023-02-11T03:57:46;26.9;;;11.8;;
64018;SDS011;66942;52.138;5.216;2023-02-11T04:01:01;24.5;;;10.8;;
64018;SDS011;66942;52.138;5.216;2023-02-11T04:02:41;24.7;;;10.7;;
64018;SDS011;66942;52.138;5.216;2023-02-11T04:04:18;28.8;;;12.2;;
64018;SDS011;66942;52.138;5.216;2023-02-11T04:07:31;27.7;;;13.0;;
64018;SDS011;66942;52.138;5.216;2023-02-11T04:09:08;30.6;;;13.7;;
64018;SDS011;66942;52.138;5.216;2023-02-11T04:10:44;26.8;;;12.8;;
64018;SDS011;66942;52.138;5.216;2023-02-11T04:12:20;30.7;;;14.4;;
64018;SDS011;66942;52.138;5.216;2023-02-11T04:15:33;29.2;;;14.1;;
64018;SDS011;66942;52.138;5.216;2023-02-11T04:17:09;32.0;;;13.7;;
64018;SDS011;66942;52.138;5.216;2023-02-11T04:18:46;34.5;;;14.7;;
64018;SDS011;66942;52.138;5.216;2023-02-11T04:21:58;31.4;;;14.8;;
64018;SDS011;66942;52.138;5.216;2023-02-11T04:23:35;27.8;;;14.8;;
64018;SDS011;66942;52.138;5.216;2023-02-11T04:25:13;34.6;;;15.6;;
64018;SDS011;66942;52.138;5.216;2023-02-11T04:28:28;28.2;;;14.1;;
64018;SDS011;66942;52.138;5.216;2023-02-11T04:30:05;29.2;;;16.11;;
64018;SDS011;66942;52.138;5.216;2023-02-11T04:31:44;29.6;;;15.1;;
64018;SDS011;66942;52.138;5.216;2023-02-11T04:33:22;32.9;;;16.7;;
64018;SDS011;66942;52.138;5.216;2023-02-11T04:36:35;27.1;;;14.3;;
64018;SDS011;66942;52.138;5.216;2023-02-11T04:38:11;29.7;;;14.6;;
64018;SDS011;66942;52.138;5.216;2023-02-11T04:39:48;32.6;;;16.8;;
64018;SDS011;66942;52.138;5.216;2023-02-11T04:43:00;29.7;;;16.3;;
64018;SDS011;66942;52.138;5.216;2023-02-11T04:44:37;27.8;;;15.8;;
64018;SDS011;66942;52.138;5.216;2023-02-11T04:46:13;32.21;;;17.0;;
64018;SDS011;66942;52.138;5.216;2023-02-11T04:47:49;31.0;;;16.5;;
64018;SDS011;66942;52.138;5.216;2023-02-11T04:51:01;28.4;;;16.4;;
64018;SDS011;66942;52.138;5.216;2023-02-11T04:52:38;31.3;;;15.9;;
64018;SDS011;66942;52.138;5.216;2023-02-11T04:54:15;33.6;;;16.9;;
64018;SDS011;66942;52.138;5.216;2023-02-11T04:57:28;34.5;;;18.11;;
64018;SDS011;66942;52.138;5.216;2023-02-11T04:59:04;31.4;;;17.0;;
64018;SDS011;66942;52.138;5.216;2023-02-11T05:00:42;30.5;;;16.7;;
64018;SDS011;66942;52.138;5.216;2023-02-11T05:03:54;34.21;;;18.61;;
64018;SDS011;66942;52.138;5.216;2023-02-11T05:05:32;34.5;;;17.8;;
64018;SDS011;66942;52.138;5.216;2023-02-11T05:07:08;31.2;;;17.91;;
64018;SDS011;66942;52.138;5.216;2023-02-11T05:10:20;35.31;;;19.8;;
64018;SDS011;66942;52.138;5.216;2023-02-11T05:11:56;35.21;;;19.0;;
64018;SDS011;66942;52.138;5.216;2023-02-11T05:13:32;30.9;;;18.3;;
64018;SDS011;66942;52.138;5.216;2023-02-11T05:15:09;34.9;;;19.5;;
64018;SDS011;66942;52.138;5.216;2023-02-11T05:18:21;33.4;;;19.0;;
64018;SDS011;66942;52.138;5.216;2023-02-11T05:19:58;33.3;;;19.91;;
64018;SDS011;66942;52.138;5.216;2023-02-11T05:21:34;33.4;;;19.2;;
64018;SDS011;66942;52.138;5.216;2023-02-11T05:24:47;33.0;;;19.41;;
64018;SDS011;66942;52.138;5.216;2023-02-11T05:26:23;37.81;;;20.41;;
64018;SDS011;66942;52.138;5.216;2023-02-11T05:28:00;27.7;;;19.5;;
64018;SDS011;66942;52.138;5.216;2023-02-11T05:31:13;31.4;;;18.91;;
64018;SDS011;66942;52.138;5.216;2023-02-11T05:32:49;30.5;;;19.91;;
64018;SDS011;66942;52.138;5.216;2023-02-11T05:34:26;36.31;;;21.1;;
64018;SDS011;66942;52.138;5.216;2023-02-11T05:36:04;32.9;;;20.9;;
64018;SDS011;66942;52.138;5.216;2023-02-11T05:39:19;32.0;;;21.1;;
64018;SDS011;66942;52.138;5.216;2023-02-11T05:40:56;35.71;;;21.3;;
64018;SDS011;66942;52.138;5.216;2023-02-11T05:42:32;28.6;;;19.11;;
64018;SDS011;66942;52.138;5.216;2023-02-11T05:45:45;30.7;;;19.0;;
64018;SDS011;66942;52.138;5.216;2023-02-11T05:47:21;37.81;;;19.8;;
64018;SDS011;66942;52.138;5.216;2023-02-11T05:48:57;34.9;;;20.5;;
64018;SDS011;66942;52.138;5.216;2023-02-11T05:52:09;34.0;;;20.5;;
64018;SDS011;66942;52.138;5.216;2023-02-11T05:53:45;30.2;;;19.7;;
64018;SDS011;66942;52.138;5.216;2023-02-11T05:55:22;31.4;;;20.6;;
64018;SDS011;66942;52.138;5.216;2023-02-11T05:56:59;33.5;;;20.0;;
64018;SDS011;66942;52.138;5.216;2023-02-11T06:00:13;35.81;;;21.4;;
64018;SDS011;66942;52.138;5.216;2023-02-11T06:01:50;32.8;;;21.0;;
64018;SDS011;66942;52.138;5.216;2023-02-11T06:03:26;35.9;;;22.2;;
64018;SDS011;66942;52.138;5.216;2023-02-11T06:06:39;35.9;;;22.1;;
64018;SDS011;66942;52.138;5.216;2023-02-11T06:08:15;32.3;;;21.3;;
64018;SDS011;66942;52.138;5.216;2023-02-11T06:09:51;36.21;;;22.4;;
64018;SDS011;66942;52.138;5.216;2023-02-11T06:13:03;35.0;;;22.6;;
64018;SDS011;66942;52.138;5.216;2023-02-11T06:14:40;36.31;;;24.1;;
64018;SDS011;66942;52.138;5.216;2023-02-11T06:16:16;31.7;;;22.4;;
64018;SDS011;66942;52.138;5.216;2023-02-11T06:17:52;39.5;;;24.3;;
64018;SDS011;66942;52.138;5.216;2023-02-11T06:21:05;34.71;;;23.5;;
64018;SDS011;66942;52.138;5.216;2023-02-11T06:22:43;36.5;;;24.0;;
64018;SDS011;66942;52.138;5.216;2023-02-11T06:24:19;39.6;;;24.4;;
64018;SDS011;66942;52.138;5.216;2023-02-11T06:27:37;38.1;;;25.5;;
64018;SDS011;66942;52.138;5.216;2023-02-11T06:29:14;38.81;;;24.9;;
64018;SDS011;66942;52.138;5.216;2023-02-11T06:30:51;44.5;;;26.8;;
64018;SDS011;66942;52.138;5.216;2023-02-11T06:32:27;39.9;;;26.7;;
64018;SDS011;66942;52.138;5.216;2023-02-11T06:35:40;39.71;;;27.3;;
64018;SDS011;66942;52.138;5.216;2023-02-11T06:37:16;35.0;;;25.5;;
64018;SDS011;66942;52.138;5.216;2023-02-11T06:38:52;40.71;;;27.0;;
64018;SDS011;66942;52.138;5.216;2023-02-11T06:42:06;39.81;;;26.5;;
64018;SDS011;66942;52.138;5.216;2023-02-11T06:43:42;39.0;;;26.3;;
64018;SDS011;66942;52.138;5.216;2023-02-11T06:45:19;35.21;;;25.4;;
64018;SDS011;66942;52.138;5.216;2023-02-11T06:48:33;38.31;;;27.4;;
64018;SDS011;66942;52.138;5.216;2023-02-11T06:50:11;35.21;;;26.4;;
64018;SDS011;66942;52.138;5.216;2023-02-11T06:51:49;37.9;;;26.6;;
64018;SDS011;66942;52.138;5.216;2023-02-11T06:53:25;38.1;;;27.7;;
64018;SDS011;66942;52.138;5.216;2023-02-11T06:56:38;38.0;;;26.0;;
64018;SDS011;66942;52.138;5.216;2023-02-11T06:58:16;41.1;;;28.1;;
64018;SDS011;66942;52.138;5.216;2023-02-11T06:59:52;41.3;;;27.9;;
64018;SDS011;66942;52.138;5.216;2023-02-11T07:03:05;37.6;;;26.8;;
64018;SDS011;66942;52.138;5.216;2023-02-11T07:04:41;37.5;;;27.5;;
64018;SDS011;66942;52.138;5.216;2023-02-11T07:06:18;40.21;;;27.8;;
64018;SDS011;66942;52.138;5.216;2023-02-11T07:09:32;39.81;;;27.0;;
64018;SDS011;66942;52.138;5.216;2023-02-11T07:11:10;34.21;;;25.3;;
64018;SDS011;66942;52.138;5.216;2023-02-11T07:12:47;38.4;;;27.8;;
64018;SDS011;66942;52.138;5.216;2023-02-11T07:14:23;39.9;;;28.7;;
64018;SDS011;66942;52.138;5.216;2023-02-11T07:17:41;41.3;;;31.2;;
64018;SDS011;66942;52.138;5.216;2023-02-11T07:19:17;42.4;;;31.5;;
64018;SDS011;66942;52.138;5.216;2023-02-11T07:20:53;41.1;;;31.6;;
64018;SDS011;66942;52.138;5.216;2023-02-11T07:24:06;39.81;;;30.9;;
64018;SDS011;66942;52.138;5.216;2023-02-11T07:25:44;42.1;;;29.9;;
64018;SDS011;66942;52.138;5.216;2023-02-11T07:27:21;41.0;;;31.4;;
64018;SDS011;66942;52.138;5.216;2023-02-11T07:28:57;45.5;;;33.21;;
64018;SDS011;66942;52.138;5.216;2023-02-11T07:32:11;40.5;;;31.3;;
64018;SDS011;66942;52.138;5.216;2023-02-11T07:33:47;41.7;;;32.3;;
64018;SDS011;66942;52.138;5.216;2023-02-11T07:35:24;40.1;;;31.9;;
64018;SDS011;66942;52.138;5.216;2023-02-11T07:38:37;46.5;;;32.9;;
64018;SDS011;66942;52.138;5.216;2023-02-11T07:40:14;43.7;;;32.1;;
64018;SDS011;66942;52.138;5.216;2023-02-11T07:41:50;42.8;;;32.5;;
64018;SDS011;66942;52.138;5.216;2023-02-11T07:45:03;45.0;;;33.9;;
64018;SDS011;66942;52.138;5.216;2023-02-11T07:46:43;43.1;;;33.4;;
64018;SDS011;66942;52.138;5.216;2023-02-11T07:48:19;39.71;;;31.0;;
64018;SDS011;66942;52.138;5.216;2023-02-11T07:49:55;41.5;;;33.0;;
64018;SDS011;66942;52.138;5.216;2023-02-11T07:53:08;43.6;;;34.1;;
64018;SDS011;66942;52.138;5.216;2023-02-11T07:54:44;40.9;;;32.8;;
64018;SDS011;66942;52.138;5.216;2023-02-11T07:56:22;43.7;;;33.9;;
64018;SDS011;66942;52.138;5.216;2023-02-11T07:59:35;45.3;;;35.0;;
64018;SDS011;66942;52.138;5.216;2023-02-11T08:01:13;45.3;;;34.81;;
64018;SDS011;66942;52.138;5.216;2023-02-11T08:02:52;40.4;;;32.3;;
64018;SDS011;66942;52.138;5.216;2023-02-11T08:04:28;43.2;;;33.5;;
64018;SDS011;66942;52.138;5.216;2023-02-11T08:07:42;43.6;;;33.21;;
64018;SDS011;66942;52.138;5.216;2023-02-11T08:09:18;46.0;;;34.81;;
64018;SDS011;66942;52.138;5.216;2023-02-11T08:10:54;47.4;;;35.81;;
64018;SDS011;66942;52.138;5.216;2023-02-11T08:14:07;43.6;;;34.31;;
64018;SDS011;66942;52.138;5.216;2023-02-11T08:15:45;42.0;;;34.31;;
64018;SDS011;66942;52.138;5.216;2023-02-11T08:17:21;40.1;;;34.21;;
64018;SDS011;66942;52.138;5.216;2023-02-11T08:20:36;49.9;;;37.81;;
64018;SDS011;66942;52.138;5.216;2023-02-11T08:22:13;43.8;;;35.9;;
64018;SDS011;66942;52.138;5.216;2023-02-11T08:23:49;47.8;;;37.1;;
64018;SDS011;66942;52.138;5.216;2023-02-11T08:25:26;48.2;;;36.0;;
64018;SDS011;66942;52.138;5.216;2023-02-11T08:28:39;43.2;;;34.0;;
64018;SDS011;66942;52.138;5.216;2023-02-11T08:30:18;43.7;;;35.6;;
64018;SDS011;66942;52.138;5.216;2023-02-11T08:31:54;44.2;;;35.4;;
64018;SDS011;66942;52.138;5.216;2023-02-11T08:35:07;44.6;;;35.5;;
64018;SDS011;66942;52.138;5.216;2023-02-11T08:36:44;43.5;;;35.6;;
64018;SDS011;66942;52.138;5.216;2023-02-11T08:38:22;45.0;;;36.1;;
64018;SDS011;66942;52.138;5.216;2023-02-11T08:41:34;45.3;;;35.71;;
64018;SDS011;66942;52.138;5.216;2023-02-11T08:43:10;41.5;;;34.71;;
64018;SDS011;66942;52.138;5.216;2023-02-11T08:44:46;46.3;;;38.31;;
64018;SDS011;66942;52.138;5.216;2023-02-11T08:46:22;41.8;;;34.9;;
64018;SDS011;66942;52.138;5.216;2023-02-11T08:49:36;44.3;;;36.5;;
64018;SDS011;66942;52.138;5.216;2023-02-11T08:51:13;47.2;;;35.6;;
64018;SDS011;66942;52.138;5.216;2023-02-11T08:52:52;44.3;;;35.6;;
64018;SDS011;66942;52.138;5.216;2023-02-11T08:56:07;41.7;;;35.5;;
64018;SDS011;66942;52.138;5.216;2023-02-11T08:57:45;40.9;;;35.31;;
64018;SDS011;66942;52.138;5.216;2023-02-11T08:59:21;40.6;;;35.71;;
64018;SDS011;66942;52.138;5.216;2023-02-11T09:00:58;39.1;;;33.71;;
64018;SDS011;66942;52.138;5.216;2023-02-11T09:04:10;38.81;;;34.6;;
64018;SDS011;66942;52.138;5.216;2023-02-11T09:05:47;39.6;;;33.6;;
64018;SDS011;66942;52.138;5.216;2023-02-11T09:07:25;39.0;;;34.9;;
64018;SDS011;66942;52.138;5.216;2023-02-11T09:10:39;38.71;;;34.5;;
64018;SDS011;66942;52.138;5.216;2023-02-11T09:12:15;37.71;;;33.6;;
64018;SDS011;66942;52.138;5.216;2023-02-11T09:13:51;37.0;;;32.71;;
64018;SDS011;66942;52.138;5.216;2023-02-11T09:17:04;40.1;;;32.9;;
64018;SDS011;66942;52.138;5.216;2023-02-11T09:18:41;41.2;;;34.0;;
64018;SDS011;66942;52.138;5.216;2023-02-11T09:20:17;38.5;;;32.5;;
64018;SDS011;66942;52.138;5.216;2023-02-11T09:21:54;40.0;;;33.21;;
64018;SDS011;66942;52.138;5.216;2023-02-11T09:25:10;36.4;;;31.9;;
64018;SDS011;66942;52.138;5.216;2023-02-11T09:26:48;35.5;;;31.7;;
64018;SDS011;66942;52.138;5.216;2023-02-11T09:28:25;34.4;;;30.9;;
64018;SDS011;66942;52.138;5.216;2023-02-11T09:31:38;36.1;;;32.3;;
64018;SDS011;66942;52.138;5.216;2023-02-11T09:33:14;34.4;;;30.6;;
64018;SDS011;66942;52.138;5.216;2023-02-11T09:34:51;36.1;;;31.7;;
64018;SDS011;66942;52.138;5.216;2023-02-11T09:38:06;36.0;;;31.1;;
64018;SDS011;66942;52.138;5.216;2023-02-11T09:39:45;36.0;;;31.5;;
64018;SDS011;66942;52.138;5.216;2023-02-11T09:41:26;34.81;;;31.2;;
64018;SDS011;66942;52.138;5.216;2023-02-11T09:43:43;35.21;;;31.4;;
64018;SDS011;66942;52.138;5.216;2023-02-11T09:45:23;32.4;;;29.2;;
64018;SDS011;66942;52.138;5.216;2023-02-11T09:47:02;34.81;;;31.1;;
64018;SDS011;66942;52.138;5.216;2023-02-11T09:50:23;35.4;;;30.6;;
64018;SDS011;66942;52.138;5.216;2023-02-11T09:52:05;33.71;;;30.1;;
64018;SDS011;66942;52.138;5.216;2023-02-11T09:53:48;34.9;;;31.2;;
64018;SDS011;66942;52.138;5.216;2023-02-11T09:55:31;34.5;;;30.9;;
64018;SDS011;66942;52.138;5.216;2023-02-11T09:58:47;33.21;;;29.7;;
64018;SDS011;66942;52.138;5.216;2023-02-11T10:00:25;34.6;;;31.2;;
64018;SDS011;66942;52.138;5.216;2023-02-11T10:02:08;33.4;;;30.0;;
64018;SDS011;66942;52.138;5.216;2023-02-11T10:03:56;33.8;;;30.3;;
64018;SDS011;66942;52.138;5.216;2023-02-11T10:07:35;33.1;;;29.7;;
64018;SDS011;66942;52.138;5.216;2023-02-11T10:09:39;34.31;;;30.2;;
64018;SDS011;66942;52.138;5.216;2023-02-11T10:11:29;32.6;;;29.2;;
64018;SDS011;66942;52.138;5.216;2023-02-11T10:13:21;32.8;;;29.3;;
64018;SDS011;66942;52.138;5.216;2023-02-11T10:15:17;31.9;;;28.6;;
64018;SDS011;66942;52.138;5.216;2023-02-11T10:17:06;31.3;;;28.1;;
64018;SDS011;66942;52.138;5.216;2023-02-11T10:19:03;31.3;;;28.2;;
64018;SDS011;66942;52.138;5.216;2023-02-11T10:20:58;32.0;;;28.8;;
64018;SDS011;66942;52.138;5.216;2023-02-11T10:22:49;30.6;;;27.5;;
64018;SDS011;66942;52.138;5.216;2023-02-11T10:26:09;30.7;;;27.8;;
64018;SDS011;66942;52.138;5.216;2023-02-11T10:27:48;30.4;;;27.5;;
64018;SDS011;66942;52.138;5.216;2023-02-11T10:29:30;30.4;;;27.2;;
64018;SDS011;66942;52.138;5.216;2023-02-11T10:31:15;31.1;;;27.9;;
64018;SDS011;66942;52.138;5.216;2023-02-11T10:34:38;31.3;;;28.2;;
64018;SDS011;66942;52.138;5.216;2023-02-11T10:36:17;30.2;;;27.2;;
64018;SDS011;66942;52.138;5.216;2023-02-11T10:37:55;30.4;;;27.6;;
64018;SDS011;66942;52.138;5.216;2023-02-11T10:39:31;31.9;;;28.5;;
64018;SDS011;66942;52.138;5.216;2023-02-11T10:42:49;30.7;;;27.8;;
64018;SDS011;66942;52.138;5.216;2023-02-11T10:44:29;30.6;;;27.5;;
64018;SDS011;66942;52.138;5.216;2023-02-11T10:46:08;29.4;;;26.5;;
64018;SDS011;66942;52.138;5.216;2023-02-11T10:47:54;28.5;;;25.8;;
64018;SDS011;66942;52.138;5.216;2023-02-11T10:51:14;28.3;;;25.6;;
64018;SDS011;66942;52.138;5.216;2023-02-11T10:52:58;29.2;;;26.4;;
64018;SDS011;66942;52.138;5.216;2023-02-11T10:55:03;30.3;;;27.3;;
64018;SDS011;66942;52.138;5.216;2023-02-11T10:56:51;28.7;;;26.1;;
64018;SDS011;66942;52.138;5.216;2023-02-11T10:58:36;28.0;;;25.3;;
64018;SDS011;66942;52.138;5.216;2023-02-11T11:00:22;28.6;;;25.7;;
64018;SDS011;66942;52.138;5.216;2023-02-11T11:03:58;25.5;;;23.2;;
64018;SDS011;66942;52.138;5.216;2023-02-11T11:05:36;25.9;;;23.3;;
64018;SDS011;66942;52.138;5.216;2023-02-11T11:07:24;25.7;;;23.4;;
64018;SDS011;66942;52.138;5.216;2023-02-11T11:09:03;24.4;;;22.3;;
64018;SDS011;66942;52.138;5.216;2023-02-11T11:10:42;23.1;;;21.1;;
64018;SDS011;66942;52.138;5.216;2023-02-11T11:14:12;22.4;;;20.5;;
64018;SDS011;66942;52.138;5.216;2023-02-11T11:16:06;20.5;;;18.61;;
64018;SDS011;66942;52.138;5.216;2023-02-11T11:18:13;22.9;;;20.8;;
64018;SDS011;66942;52.138;5.216;2023-02-11T11:19:51;22.9;;;20.8;;
64018;SDS011;66942;52.138;5.216;2023-02-11T11:21:29;22.0;;;20.11;;
64018;SDS011;66942;52.138;5.216;2023-02-11T11:24:54;21.8;;;19.8;;
64018;SDS011;66942;52.138;5.216;2023-02-11T11:26:38;21.4;;;19.2;;
64018;SDS011;66942;52.138;5.216;2023-02-11T11:28:18;20.7;;;18.7;;
64018;SDS011;66942;52.138;5.216;2023-02-11T11:30:00;20.2;;;18.3;;
64018;SDS011;66942;52.138;5.216;2023-02-11T11:31:44;18.7;;;16.9;;
64018;SDS011;66942;52.138;5.216;2023-02-11T11:35:07;18.3;;;16.5;;
64018;SDS011;66942;52.138;5.216;2023-02-11T11:36:59;16.8;;;15.4;;
64018;SDS011;66942;52.138;5.216;2023-02-11T11:38:46;17.2;;;15.5;;
64018;SDS011;66942;52.138;5.216;2023-02-11T11:40:32;16.0;;;14.6;;
64018;SDS011;66942;52.138;5.216;2023-02-11T11:42:21;14.9;;;13.6;;
64018;SDS011;66942;52.138;5.216;2023-02-11T11:45:55;13.8;;;12.6;;
64018;SDS011;66942;52.138;5.216;2023-02-11T11:47:34;14.4;;;13.1;;
64018;SDS011;66942;52.138;5.216;2023-02-11T11:49:19;13.8;;;12.6;;
64018;SDS011;66942;52.138;5.216;2023-02-11T11:51:02;12.3;;;11.3;;
64018;SDS011;66942;52.138;5.216;2023-02-11T11:52:42;12.4;;;11.2;;
64018;SDS011;66942;52.138;5.216;2023-02-11T11:56:08;12.4;;;11.3;;
64018;SDS011;66942;52.138;5.216;2023-02-11T11:57:49;12.4;;;11.3;;
64018;SDS011;66942;52.138;5.216;2023-02-11T11:59:26;12.7;;;11.4;;
64018;SDS011;66942;52.138;5.216;2023-02-11T12:01:07;12.5;;;11.3;;
64018;SDS011;66942;52.138;5.216;2023-02-11T12:03:03;12.5;;;11.3;;
64018;SDS011;66942;52.138;5.216;2023-02-11T12:06:06;12.8;;;11.6;;
64018;SDS011;66942;52.138;5.216;2023-02-11T12:07:58;11.8;;;10.8;;
64018;SDS011;66942;52.138;5.216;2023-02-11T12:09:51;12.7;;;11.6;;
64018;SDS011;66942;52.138;5.216;2023-02-11T12:11:55;12.7;;;11.5;;
64018;SDS011;66942;52.138;5.216;2023-02-11T12:14:15;11.6;;;10.8;;
64018;SDS011;66942;52.138;5.216;2023-02-11T12:16:04;11.8;;;10.7;;
64018;SDS011;66942;52.138;5.216;2023-02-11T12:17:58;11.8;;;10.7;;
64018;SDS011;66942;52.138;5.216;2023-02-11T12:19:47;11.1;;;10.1;;
64018;SDS011;66942;52.138;5.216;2023-02-11T12:21:55;10.5;;;9.81;;
64018;SDS011;66942;52.138;5.216;2023-02-11T12:25:37;10.7;;;9.81;;
64018;SDS011;66942;52.138;5.216;2023-02-11T12:27:34;10.8;;;9.71;;
64018;SDS011;66942;52.138;5.216;2023-02-11T12:29:25;9.4;;;8.71;;
64018;SDS011;66942;52.138;5.216;2023-02-11T12:31:14;9.9;;;9.0;;
64018;SDS011;66942;52.138;5.216;2023-02-11T12:33:05;9.6;;;8.9;;
64018;SDS011;66942;52.138;5.216;2023-02-11T12:34:55;10.1;;;9.31;;
64018;SDS011;66942;52.138;5.216;2023-02-11T12:37:08;9.71;;;8.81;;
64018;SDS011;66942;52.138;5.216;2023-02-11T12:39:03;9.6;;;8.81;;
64018;SDS011;66942;52.138;5.216;2023-02-11T12:40:53;10.0;;;9.21;;
64018;SDS011;66942;52.138;5.216;2023-02-11T12:45:26;8.81;;;8.2;;